Time,TemperatureF,DewpointF,PressureIn,WindDirection,WindDirectionDegrees,WindSpeedMPH,WindSpeedGustMPH,Humidity,HourlyPrecipIn,Conditions,Clouds,dailyrainin,SoftwareType,DateUTC
2013-01-15 00:04:00,14.5,10.0,30.41,SSW,211,0.0,0.0,81,0.00,,,0.00,weatherlink.com 1.10,2013-01-15 06:04:00,
2013-01-15 00:19:00,14.6,10.0,30.41,SSW,211,0.0,2.0,81,0.00,,,0.00,weatherlink.com 1.10,2013-01-15 06:19:00,
2013-01-15 00:34:00,14.6,10.0,30.41,SSW,211,2.0,2.0,81,0.00,,,0.00,weatherlink.com 1.10,2013-01-15 06:34:00,
2013-01-15 00:50:00,13.5,8.0,30.41,South,180,2.0,2.0,80,0.00,,,0.00,weatherlink.com 1.10,2013-01-15 06:50:00,
2013-01-15 01:05:00,12.4,8.0,30.41,SSW,195,2.0,3.0,83,0.00,,,0.00,weatherlink.com 1.10,2013-01-15 07:05:00,
2013-01-15 01:20:00,12.0,8.0,30.41,SSW,194,1.0,3.0,83,0.00,,,0.00,weatherlink.com 1.10,2013-01-15 07:20:00,
2013-01-15 01:35:00,12.6,9.0,30.41,SW,214,2.0,4.0,84,0.00,,,0.00,weatherlink.com 1.10,2013-01-15 07:35:00,
2013-01-15 01:50:00,13.1,9.0,30.41,SW,225,0.0,2.0,83,0.00,,,0.00,weatherlink.com 1.10,2013-01-15 07:50:00,
2013-01-15 02:05:00,13.1,9.0,30.41,SW,225,0.0,1.0,83,0.00,,,0.00,weatherlink.com 1.10,2013-01-15 08:05:00,
2013-01-15 02:20:00,13.0,9.0,30.42,SW,225,1.0,1.0,83,0.00,,,0.00,weatherlink.com 1.10,2013-01-15 08:20:00,
2013-01-15 02:35:00,13.1,9.0,30.42,SW,225,0.0,0.0,84,0.00,,,0.00,weatherlink.com 1.10,2013-01-15 08:35:00,
2013-01-15 02:50:00,13.2,9.0,30.41,SW,225,0.0,0.0,84,0.00,,,0.00,weatherlink.com 1.10,2013-01-15 08:50:00,
2013-01-15 03:05:00,13.3,9.0,30.41,SW,225,0.0,0.0,83,0.00,,,0.00,weatherlink.com 1.10,2013-01-15 09:05:00,
2013-01-15 03:20:00,13.2,9.0,30.41,SW,225,0.0,0.0,83,0.00,,,0.00,weatherlink.com 1.10,2013-01-15 09:20:00,
2013-01-15 03:35:00,13.2,9.0,30.40,SW,225,0.0,0.0,84,0.00,,,0.00,weatherlink.com 1.10,2013-01-15 09:35:00,
2013-01-15 03:50:00,13.1,9.0,30.40,SW,225,0.0,0.0,84,0.00,,,0.00,weatherlink.com 1.10,2013-01-15 09:50:00,
2013-01-15 04:21:00,12.5,9.0,30.39,SW,225,0.0,0.0,84,0.00,,,0.00,weatherlink.com 1.10,2013-01-15 10:21:00,
2013-01-15 04:35:00,12.5,9.0,30.39,SSW,213,0.0,0.0,84,0.00,,,0.00,weatherlink.com 1.10,2013-01-15 10:35:00,
2013-01-15 04:50:00,12.6,9.0,30.38,SSW,213,0.0,0.0,85,0.00,,,0.00,weatherlink.com 1.10,2013-01-15 10:50:00,
2013-01-15 05:05:00,12.4,9.0,30.38,SSW,213,0.0,0.0,85,0.00,,,0.00,weatherlink.com 1.10,2013-01-15 11:05:00,
2013-01-15 05:20:00,12.4,9.0,30.38,SSW,213,0.0,0.0,85,0.00,,,0.00,weatherlink.com 1.10,2013-01-15 11:20:00,
2013-01-15 05:35:00,12.4,9.0,30.37,SSW,213,0.0,0.0,85,0.00,,,0.00,weatherlink.com 1.10,2013-01-15 11:35:00,
2013-01-15 05:50:00,12.3,9.0,30.37,SSW,212,0.0,0.0,85,0.00,,,0.00,weatherlink.com 1.10,2013-01-15 11:50:00,
2013-01-15 06:05:00,11.9,8.0,30.37,SSW,198,2.0,3.0,85,0.00,,,0.00,weatherlink.com 1.10,2013-01-15 12:05:00,
2013-01-15 06:20:00,11.6,8.0,30.38,South,178,0.0,2.0,86,0.00,,,0.00,weatherlink.com 1.10,2013-01-15 12:20:00,
2013-01-15 06:35:00,12.0,9.0,30.38,South,178,0.0,1.0,86,0.00,,,0.00,weatherlink.com 1.10,2013-01-15 12:35:00,
2013-01-15 06:50:00,11.8,8.0,30.37,South,178,0.0,1.0,86,0.00,,,0.00,weatherlink.com 1.10,2013-01-15 12:50:00,
2013-01-15 07:05:00,11.6,8.0,30.37,South,178,0.0,1.0,86,0.00,,,0.00,weatherlink.com 1.10,2013-01-15 13:05:00,
2013-01-15 07:20:00,11.4,8.0,30.38,SSW,192,2.0,2.0,86,0.00,,,0.00,weatherlink.com 1.10,2013-01-15 13:20:00,
2013-01-15 07:35:00,11.0,7.0,30.38,South,189,1.0,2.0,85,0.00,,,0.00,weatherlink.com 1.10,2013-01-15 13:35:00,
2013-01-15 07:50:00,10.8,7.0,30.39,South,189,0.0,2.0,86,0.00,,,0.00,weatherlink.com 1.10,2013-01-15 13:50:00,
2013-01-15 08:05:00,11.4,8.0,30.39,South,190,0.0,0.0,87,0.00,,,0.00,weatherlink.com 1.10,2013-01-15 14:05:00,
2013-01-15 08:20:00,12.3,9.0,30.39,SSW,204,0.0,0.0,86,0.00,,,0.00,weatherlink.com 1.10,2013-01-15 14:20:00,
2013-01-15 08:35:00,12.8,9.0,30.40,SSW,192,1.0,3.0,84,0.00,,,0.00,weatherlink.com 1.10,2013-01-15 14:35:00,
2013-01-15 08:50:00,12.8,9.0,30.41,South,188,1.0,2.0,84,0.00,,,0.00,weatherlink.com 1.10,2013-01-15 14:50:00,
2013-01-15 09:05:00,13.2,10.0,30.41,South,184,2.0,2.0,85,0.00,,,0.00,weatherlink.com 1.10,2013-01-15 15:05:00,
2013-01-15 09:20:00,15.1,11.0,30.41,SSW,198,3.0,4.0,83,0.00,,,0.00,weatherlink.com 1.10,2013-01-15 15:20:00,
2013-01-15 09:35:00,15.8,11.0,30.40,South,178,2.0,4.0,82,0.00,,,0.00,weatherlink.com 1.10,2013-01-15 15:35:00,
2013-01-15 09:51:00,17.7,13.0,30.39,South,182,2.0,4.0,81,0.00,,,0.00,weatherlink.com 1.10,2013-01-15 15:51:00,
2013-01-15 10:06:00,18.5,13.0,30.39,South,183,2.0,5.0,80,0.00,,,0.00,weatherlink.com 1.10,2013-01-15 16:06:00,
2013-01-15 10:21:00,19.1,13.0,30.39,South,177,2.0,4.0,78,0.00,,,0.00,weatherlink.com 1.10,2013-01-15 16:21:00,
2013-01-15 10:36:00,19.8,14.0,30.38,SSW,204,4.0,5.0,78,0.00,,,0.00,weatherlink.com 1.10,2013-01-15 16:36:00,
2013-01-15 10:51:00,20.8,15.0,30.37,SSW,196,3.0,5.0,77,0.00,,,0.00,weatherlink.com 1.10,2013-01-15 16:51:00,
2013-01-15 11:06:00,21.4,15.0,30.34,SW,227,2.0,6.0,75,0.00,,,0.00,weatherlink.com 1.10,2013-01-15 17:06:00,
2013-01-15 11:21:00,22.1,15.0,30.34,SSW,209,2.0,4.0,75,0.00,,,0.00,weatherlink.com 1.10,2013-01-15 17:21:00,
2013-01-15 11:36:00,23.4,16.0,30.35,SSW,196,6.0,7.0,72,0.00,,,0.00,weatherlink.com 1.10,2013-01-15 17:36:00,
2013-01-15 11:51:00,23.9,15.0,30.35,SSW,203,6.0,8.0,69,0.00,,,0.00,weatherlink.com 1.10,2013-01-15 17:51:00,
2013-01-15 12:06:00,24.7,15.0,30.34,South,190,4.0,10.0,67,0.00,,,0.00,weatherlink.com 1.10,2013-01-15 18:06:00,
2013-01-15 12:21:00,24.6,15.0,30.33,South,187,3.0,8.0,68,0.00,,,0.00,weatherlink.com 1.10,2013-01-15 18:21:00,
2013-01-15 12:36:00,25.0,16.0,30.32,SW,217,3.0,9.0,69,0.00,,,0.00,weatherlink.com 1.10,2013-01-15 18:36:00,
2013-01-15 12:51:00,25.3,16.0,30.31,SSW,196,4.0,7.0,67,0.00,,,0.00,weatherlink.com 1.10,2013-01-15 18:51:00,
2013-01-15 13:06:00,25.9,16.0,30.29,South,178,3.0,5.0,67,0.00,,,0.00,weatherlink.com 1.10,2013-01-15 19:06:00,
2013-01-15 13:21:00,26.2,16.0,30.28,SSE,163,2.0,5.0,66,0.00,,,0.00,weatherlink.com 1.10,2013-01-15 19:21:00,
2013-01-15 13:36:00,26.5,16.0,30.27,SSE,148,3.0,5.0,65,0.00,,,0.00,weatherlink.com 1.10,2013-01-15 19:36:00,
2013-01-15 13:51:00,26.8,16.0,30.27,SW,225,5.0,6.0,63,0.00,,,0.00,weatherlink.com 1.10,2013-01-15 19:51:00,
2013-01-15 14:06:00,26.5,15.0,30.27,SW,224,5.0,8.0,62,0.00,,,0.00,weatherlink.com 1.10,2013-01-15 20:06:00,
2013-01-15 14:21:00,27.1,17.0,30.27,SSE,147,4.0,8.0,65,0.00,,,0.00,weatherlink.com 1.10,2013-01-15 20:21:00,
2013-01-15 14:36:00,27.0,16.0,30.27,SW,215,4.0,9.0,64,0.00,,,0.00,weatherlink.com 1.10,2013-01-15 20:36:00,
2013-01-15 14:51:00,26.9,17.0,30.27,South,180,6.0,7.0,66,0.00,,,0.00,weatherlink.com 1.10,2013-01-15 20:51:00,
2013-01-15 15:06:00,26.6,17.0,30.27,South,177,4.0,8.0,68,0.00,,,0.00,weatherlink.com 1.10,2013-01-15 21:06:00,
2013-01-15 15:21:00,26.4,17.0,30.27,SSE,161,5.0,7.0,67,0.00,,,0.00,weatherlink.com 1.10,2013-01-15 21:21:00,
2013-01-15 15:36:00,25.9,16.0,30.27,SSW,195,5.0,7.0,66,0.00,,,0.00,weatherlink.com 1.10,2013-01-15 21:36:00,
2013-01-15 15:51:00,25.6,16.0,30.27,SSW,193,2.0,7.0,67,0.00,,,0.00,weatherlink.com 1.10,2013-01-15 21:51:00,
2013-01-15 16:06:00,25.0,16.0,30.27,SSW,207,7.0,7.0,68,0.00,,,0.00,weatherlink.com 1.10,2013-01-15 22:06:00,
2013-01-15 16:21:00,24.1,16.0,30.27,South,174,3.0,6.0,70,0.00,,,0.00,weatherlink.com 1.10,2013-01-15 22:21:00,
2013-01-15 16:36:00,23.2,15.0,30.26,SSW,197,1.0,4.0,72,0.00,,,0.00,weatherlink.com 1.10,2013-01-15 22:36:00,
2013-01-15 16:51:00,21.8,15.0,30.26,South,171,2.0,4.0,74,0.00,,,0.00,weatherlink.com 1.10,2013-01-15 22:51:00,
2013-01-15 17:06:00,20.7,14.0,30.26,SSE,163,0.0,4.0,75,0.00,,,0.00,weatherlink.com 1.10,2013-01-15 23:06:00,
2013-01-15 17:21:00,20.0,14.0,30.26,South,189,1.0,2.0,77,0.00,,,0.00,weatherlink.com 1.10,2013-01-15 23:21:00,
2013-01-15 17:36:00,19.4,14.0,30.25,South,177,1.0,4.0,78,0.00,,,0.00,weatherlink.com 1.10,2013-01-15 23:36:00,
2013-01-15 17:51:00,19.8,13.0,30.25,South,169,1.0,4.0,76,0.00,,,0.00,weatherlink.com 1.10,2013-01-15 23:51:00,
2013-01-15 18:07:00,19.6,14.0,30.24,SSE,161,2.0,5.0,78,0.00,,,0.00,weatherlink.com 1.10,2013-01-16 00:07:00,
2013-01-15 18:22:00,20.2,14.0,30.23,SSE,157,3.0,5.0,77,0.00,,,0.00,weatherlink.com 1.10,2013-01-16 00:22:00,
2013-01-15 18:37:00,20.4,14.0,30.23,SSE,150,4.0,5.0,77,0.00,,,0.00,weatherlink.com 1.10,2013-01-16 00:37:00,
2013-01-15 18:52:00,19.4,14.0,30.22,SSE,155,3.0,6.0,78,0.00,,,0.00,weatherlink.com 1.10,2013-01-16 00:52:00,
2013-01-15 19:07:00,18.9,13.0,30.21,SSE,159,3.0,4.0,79,0.00,,,0.00,weatherlink.com 1.10,2013-01-16 01:07:00,
2013-01-15 19:22:00,18.7,14.0,30.21,South,172,1.0,3.0,80,0.00,,,0.00,weatherlink.com 1.10,2013-01-16 01:22:00,
2013-01-15 19:37:00,17.7,13.0,30.20,SSE,166,0.0,4.0,81,0.00,,,0.00,weatherlink.com 1.10,2013-01-16 01:37:00,
2013-01-15 19:52:00,17.2,13.0,30.19,South,189,2.0,3.0,82,0.00,,,0.00,weatherlink.com 1.10,2013-01-16 01:52:00,
2013-01-15 20:07:00,17.1,13.0,30.18,South,180,0.0,2.0,82,0.00,,,0.00,weatherlink.com 1.10,2013-01-16 02:07:00,
2013-01-15 20:22:00,16.7,12.0,30.17,SSE,156,1.0,2.0,82,0.00,,,0.00,weatherlink.com 1.10,2013-01-16 02:22:00,
2013-01-15 20:37:00,16.7,13.0,30.17,SSW,203,1.0,3.0,84,0.00,,,0.00,weatherlink.com 1.10,2013-01-16 02:37:00,
2013-01-15 20:52:00,16.9,12.0,30.16,SSW,196,2.0,3.0,82,0.00,,,0.00,weatherlink.com 1.10,2013-01-16 02:52:00,
2013-01-15 21:07:00,16.3,12.0,30.15,South,184,1.0,3.0,83,0.00,,,0.00,weatherlink.com 1.10,2013-01-16 03:07:00,
2013-01-15 21:22:00,16.3,12.0,30.15,South,186,1.0,4.0,83,0.00,,,0.00,weatherlink.com 1.10,2013-01-16 03:22:00,
2013-01-15 21:37:00,15.3,11.0,30.14,SSE,165,0.0,3.0,83,0.00,,,0.00,weatherlink.com 1.10,2013-01-16 03:37:00,
2013-01-15 21:52:00,14.8,11.0,30.13,South,190,2.0,3.0,84,0.00,,,0.00,weatherlink.com 1.10,2013-01-16 03:52:00,
2013-01-15 22:07:00,14.8,11.0,30.12,South,178,1.0,3.0,84,0.00,,,0.00,weatherlink.com 1.10,2013-01-16 04:07:00,
2013-01-15 22:22:00,15.0,11.0,30.12,SSW,204,1.0,2.0,85,0.00,,,0.00,weatherlink.com 1.10,2013-01-16 04:22:00,
2013-01-15 22:37:00,15.8,12.0,30.12,SSW,200,1.0,4.0,84,0.00,,,0.00,weatherlink.com 1.10,2013-01-16 04:37:00,
2013-01-15 22:52:00,15.5,12.0,30.12,SW,221,0.0,4.0,84,0.00,,,0.00,weatherlink.com 1.10,2013-01-16 04:52:00,
2013-01-15 23:07:00,15.5,12.0,30.11,SW,221,0.0,4.0,84,0.00,,,0.00,weatherlink.com 1.10,2013-01-16 05:07:00,
2013-01-15 23:22:00,15.3,11.0,30.10,SW,219,2.0,3.0,84,0.00,,,0.00,weatherlink.com 1.10,2013-01-16 05:22:00,
2013-01-15 23:37:00,15.3,12.0,30.10,SSW,202,3.0,4.0,85,0.00,,,0.00,weatherlink.com 1.10,2013-01-16 05:37:00,
2013-01-15 23:52:00,15.3,11.0,30.10,SW,219,2.0,4.0,84,0.00,,,0.00,weatherlink.com 1.10,2013-01-16 05:52:00,